Time;durP1;ratioP1;P1;durP2;ratioP2;P2;SDS_P1;SDS_P2;PMS_P1;PMS_P2;Temp;Humidity;BMP_temperature;BMP_pressure;BME280_temperature;BME280_humidity;BME280_pressure;Samples;Min_cycle;Max_cycle;Signal;HPM_P1;HPM_P2
2020/12/10 00:02:21;;;;;;;20.40;12.48;;;4.10;99.90;;;;;;5015212;28;20033;-60
2020/12/10 00:04:47;;;;;;;18.08;11.90;;;3.90;99.90;;;;;;5031975;28;20488;-60
2020/12/10 00:07:12;;;;;;;20.25;12.55;;;3.90;99.90;;;;;;5032496;28;20047;-60
2020/12/10 00:09:38;;;;;;;26.60;14.70;;;4.00;99.90;;;;;;5032034;28;20061;-61
2020/12/10 00:12:04;;;;;;;25.75;14.73;;;3.90;99.90;;;;;;5013689;28;20052;-61
2020/12/10 00:14:30;;;;;;;25.83;14.73;;;3.90;99.90;;;;;;5032064;28;20025;-61
2020/12/10 00:16:56;;;;;;;23.52;14.30;;;3.90;99.90;;;;;;5032455;28;20030;-60
2020/12/10 00:19:22;;;;;;;26.33;15.15;;;3.70;99.90;;;;;;5032757;28;20107;-60
2020/12/10 00:21:48;;;;;;;22.05;13.52;;;3.80;99.90;;;;;;5031928;28;20655;-60
2020/12/10 00:24:13;;;;;;;23.70;14.90;;;3.80;99.90;;;;;;5014358;28;20033;-60
2020/12/10 00:26:39;;;;;;;22.00;13.90;;;3.60;99.90;;;;;;5031829;28;20029;-60
2020/12/10 00:29:05;;;;;;;23.80;14.02;;;3.60;99.90;;;;;;5032206;28;20038;-60
2020/12/10 00:31:32;;;;;;;22.23;14.50;;;3.70;99.90;;;;;;5031739;28;20021;-60
2020/12/10 00:33:57;;;;;;;24.08;14.52;;;3.70;99.90;;;;;;5014457;28;20385;-60
2020/12/10 00:36:23;;;;;;;21.92;14.68;;;3.70;99.90;;;;;;5032175;28;20041;-60
2020/12/10 00:38:48;;;;;;;26.17;14.75;;;3.70;99.90;;;;;;5031049;28;20025;-59
2020/12/10 00:41:15;;;;;;;24.95;15.32;;;3.70;99.90;;;;;;5030696;28;20028;-61
2020/12/10 00:43:41;;;;;;;26.17;14.90;;;3.70;99.90;;;;;;5031420;28;20025;-61
2020/12/10 00:46:06;;;;;;;26.88;14.93;;;3.80;99.90;;;;;;5014057;28;20025;-61
2020/12/10 00:48:33;;;;;;;26.55;14.10;;;3.80;99.90;;;;;;5030950;28;20048;-61
2020/12/10 00:50:59;;;;;;;25.23;14.02;;;3.80;99.90;;;;;;5014102;28;20025;-60
2020/12/10 00:53:25;;;;;;;27.83;14.50;;;3.90;99.90;;;;;;5013891;28;20048;-60
2020/12/10 00:55:54;;;;;;;21.55;13.73;;;3.70;99.90;;;;;;5030864;28;20033;-60
2020/12/10 00:58:20;;;;;;;24.00;12.80;;;3.80;99.90;;;;;;5031405;28;20308;-60
2020/12/10 01:00:46;;;;;;;26.52;14.27;;;3.70;99.90;;;;;;5030752;28;20060;-60
2020/12/10 01:03:12;;;;;;;22.70;13.40;;;3.70;99.90;;;;;;5031383;28;20033;-60
2020/12/10 01:05:37;;;;;;;23.85;13.57;;;3.60;99.90;;;;;;5030796;28;20040;-59
2020/12/10 01:08:03;;;;;;;21.85;14.00;;;3.70;99.90;;;;;;5032377;28;20110;-60
2020/12/10 01:10:29;;;;;;;22.98;14.05;;;3.80;99.90;;;;;;5013537;28;20035;-60
2020/12/10 01:12:54;;;;;;;23.13;13.98;;;3.60;99.90;;;;;;5013183;28;20029;-61
2020/12/10 01:15:20;;;;;;;21.85;13.60;;;3.60;99.90;;;;;;5031493;28;20030;-60
2020/12/10 01:17:45;;;;;;;23.70;13.65;;;3.40;99.90;;;;;;5013099;28;20124;-60
2020/12/10 01:20:12;;;;;;;21.42;13.52;;;3.20;99.90;;;;;;5031289;28;20471;-61
2020/12/10 01:22:38;;;;;;;23.10;13.40;;;3.20;99.90;;;;;;5030613;28;20037;-61
2020/12/10 01:25:05;;;;;;;24.85;14.93;;;3.40;99.90;;;;;;5031439;28;20026;-61
2020/12/10 01:27:32;;;;;;;26.48;12.48;;;3.00;99.90;;;;;;5013435;28;20125;-59
2020/12/10 01:29:58;;;;;;;21.98;13.35;;;3.20;99.90;;;;;;5013576;28;20044;-62
2020/12/10 01:32:24;;;;;;;22.83;13.10;;;3.40;99.90;;;;;;5029835;28;20045;-60
2020/12/10 01:34:50;;;;;;;21.08;12.50;;;3.40;99.90;;;;;;5012709;28;20025;-60
2020/12/10 01:37:17;;;;;;;19.92;13.07;;;3.40;99.90;;;;;;5031274;28;20033;-59
2020/12/10 01:39:43;;;;;;;22.90;14.27;;;3.40;99.90;;;;;;4996349;28;20037;-60
2020/12/10 01:42:09;;;;;;;25.15;14.77;;;3.30;99.90;;;;;;5013411;28;20338;-60
2020/12/10 01:44:34;;;;;;;23.77;13.70;;;3.20;99.90;;;;;;5030696;28;20151;-60
2020/12/10 01:47:00;;;;;;;24.90;14.55;;;3.20;99.90;;;;;;5013493;28;20053;-60
2020/12/10 01:49:26;;;;;;;23.70;13.68;;;3.30;99.90;;;;;;5030858;28;20059;-60
2020/12/10 01:51:53;;;;;;;23.35;13.48;;;3.40;99.90;;;;;;5030202;28;20030;-61
2020/12/10 01:54:19;;;;;;;24.45;14.90;;;3.30;99.90;;;;;;5031152;28;20029;-60
2020/12/10 01:56:45;;;;;;;22.85;13.63;;;3.20;99.90;;;;;;5030171;28;20029;-60
2020/12/10 01:59:13;;;;;;;20.67;13.18;;;3.30;99.90;;;;;;5030576;28;20104;-60
2020/12/10 02:01:39;;;;;;;23.70;14.18;;;3.10;99.90;;;;;;5030733;28;20059;-60
2020/12/10 02:04:26;;;;;;;26.38;13.68;;;3.20;99.90;;;;;;5030984;28;20055;-60
2020/12/10 02:06:52;;;;;;;22.50;13.38;;;3.20;99.90;;;;;;5030227;28;20053;-60
2020/12/10 02:09:18;;;;;;;22.17;14.02;;;3.20;99.90;;;;;;5030277;28;20476;-60
2020/12/10 02:11:43;;;;;;;20.98;12.73;;;3.20;99.90;;;;;;5028330;28;20081;-61
2020/12/10 02:14:09;;;;;;;22.48;13.95;;;3.20;99.90;;;;;;5012766;28;20466;-59
2020/12/10 02:16:35;;;;;;;20.55;13.50;;;3.30;99.90;;;;;;5029933;28;20029;-62
2020/12/10 02:19:00;;;;;;;24.58;13.50;;;3.30;99.90;;;;;;5030323;28;20065;-61
2020/12/10 02:21:26;;;;;;;23.20;14.10;;;3.20;99.90;;;;;;5012701;28;20031;-61
2020/12/10 02:23:55;;;;;;;22.38;13.25;;;3.20;99.90;;;;;;5029788;28;20113;-59
2020/12/10 02:26:22;;;;;;;23.75;13.32;;;3.20;99.90;;;;;;5012578;28;20093;-60
2020/12/10 02:28:48;;;;;;;25.10;13.93;;;3.20;99.90;;;;;;5028499;28;20030;-59
2020/12/10 02:31:21;;;;;;;27.50;15.30;;;3.10;99.90;;;;;;5030662;28;20036;-60
2020/12/10 02:33:46;;;;;;;22.80;13.18;;;3.10;99.90;;;;;;5029837;28;20079;-60
2020/12/10 02:36:12;;;;;;;23.00;13.70;;;3.00;99.90;;;;;;5000444;28;20025;-59
2020/12/10 02:38:38;;;;;;;23.17;13.38;;;3.00;99.90;;;;;;5033739;28;20083;-59
2020/12/10 02:41:03;;;;;;;24.13;14.63;;;2.90;99.90;;;;;;5016553;28;20079;-60
2020/12/10 02:43:29;;;;;;;21.05;13.10;;;3.00;99.90;;;;;;5016377;28;20052;-59
2020/12/10 02:45:57;;;;;;;22.20;12.75;;;2.80;99.90;;;;;;5015951;28;20038;-59
2020/12/10 02:48:23;;;;;;;26.48;12.90;;;2.70;99.90;;;;;;5000358;28;20453;-60
2020/12/10 02:50:49;;;;;;;21.38;13.32;;;2.80;99.90;;;;;;5033175;28;20025;-59
2020/12/10 02:53:14;;;;;;;21.90;12.77;;;2.90;99.90;;;;;;5033991;28;20057;-59
2020/12/10 02:55:40;;;;;;;20.25;12.25;;;2.80;99.90;;;;;;5015589;28;20514;-59
2020/12/10 02:58:05;;;;;;;20.08;11.95;;;2.90;99.90;;;;;;5033945;28;20113;-59
2020/12/10 03:00:31;;;;;;;21.60;12.70;;;2.90;99.90;;;;;;5033691;28;20045;-59
2020/12/10 03:02:57;;;;;;;21.88;13.27;;;2.80;99.90;;;;;;5033128;28;20229;-59
2020/12/10 03:05:22;;;;;;;22.58;13.63;;;2.90;99.90;;;;;;5033734;28;20036;-59
2020/12/10 03:07:48;;;;;;;20.42;12.57;;;2.80;99.90;;;;;;5032830;28;20151;-59
2020/12/10 03:10:14;;;;;;;19.98;12.48;;;2.80;99.90;;;;;;5033545;28;20041;-59
2020/12/10 03:12:39;;;;;;;21.10;13.50;;;2.60;99.90;;;;;;5015223;28;20032;-59
2020/12/10 03:15:05;;;;;;;18.67;11.65;;;2.70;99.90;;;;;;5033619;28;20025;-59
2020/12/10 03:17:31;;;;;;;23.20;12.98;;;2.80;99.90;;;;;;5033389;28;20029;-59
2020/12/10 03:19:57;;;;;;;25.77;13.98;;;2.80;99.90;;;;;;5015200;28;20026;-60
2020/12/10 03:22:22;;;;;;;25.60;13.40;;;2.70;99.90;;;;;;5033702;28;20061;-60
2020/12/10 03:24:48;;;;;;;20.25;12.98;;;2.70;99.90;;;;;;5033065;28;20374;-60
2020/12/10 03:27:14;;;;;;;21.05;12.60;;;2.70;99.90;;;;;;5015787;28;20026;-60
2020/12/10 03:29:39;;;;;;;20.73;12.52;;;2.70;99.90;;;;;;5032956;28;20045;-61
2020/12/10 03:32:06;;;;;;;20.88;12.85;;;2.60;99.90;;;;;;5015594;28;20486;-60
2020/12/10 03:34:32;;;;;;;20.77;12.25;;;2.60;99.90;;;;;;5015677;28;20030;-60
2020/12/10 03:36:59;;;;;;;18.65;11.85;;;2.70;99.90;;;;;;5032565;28;20064;-60
2020/12/10 03:39:27;;;;;;;18.75;11.95;;;2.50;99.90;;;;;;5033451;28;20083;-61
2020/12/10 03:41:54;;;;;;;19.10;12.63;;;2.60;99.90;;;;;;5032724;28;20379;-61
2020/12/10 03:44:19;;;;;;;19.42;12.02;;;2.60;99.90;;;;;;5033373;28;20339;-60
2020/12/10 03:46:45;;;;;;;19.48;11.75;;;2.70;99.90;;;;;;5014619;28;20022;-61
2020/12/10 03:49:12;;;;;;;17.10;11.30;;;2.90;99.90;;;;;;5033077;28;20038;-60
2020/12/10 03:51:38;;;;;;;17.52;10.15;;;2.90;99.90;;;;;;5015322;28;20034;-60
2020/12/10 03:54:04;;;;;;;17.38;9.52;;;2.80;99.90;;;;;;5014461;28;20057;-59
2020/12/10 03:56:31;;;;;;;21.65;10.52;;;2.90;99.90;;;;;;5031664;28;20085;-60
2020/12/10 03:58:58;;;;;;;15.15;9.23;;;2.90;99.90;;;;;;5014451;28;20033;-60
2020/12/10 04:01:23;;;;;;;16.48;10.48;;;2.80;99.90;;;;;;5029110;28;20113;-61
2020/12/10 04:03:50;;;;;;;28.30;12.10;;;2.80;99.90;;;;;;5032260;28;20442;-60
2020/12/10 04:06:15;;;;;;;14.43;9.07;;;2.90;99.90;;;;;;5031489;28;20059;-60
2020/12/10 04:08:41;;;;;;;18.33;9.00;;;2.80;99.90;;;;;;5032433;28;20038;-64
2020/12/10 04:11:07;;;;;;;16.60;9.95;;;2.90;99.90;;;;;;5032563;28;20391;-62
2020/12/10 04:13:32;;;;;;;16.23;8.88;;;2.90;99.90;;;;;;5032493;28;20030;-61
2020/12/10 04:16:04;;;;;;;16.90;10.27;;;2.90;99.90;;;;;;5031941;28;20033;-61
2020/12/10 04:18:30;;;;;;;;;;;2.90;99.90;;;;;;5031472;28;20090;-61
2020/12/10 04:20:57;;;;;;;17.08;10.27;;;2.80;99.90;;;;;;5031787;28;19951;-61
2020/12/10 04:23:23;;;;;;;18.10;11.10;;;2.80;99.90;;;;;;5030960;28;20029;-61
2020/12/10 04:25:53;;;;;;;19.75;11.95;;;2.80;99.90;;;;;;5030278;28;20218;-61
2020/12/10 04:28:20;;;;;;;17.98;10.52;;;2.80;99.90;;;;;;5030530;28;20089;-61
2020/12/10 04:30:46;;;;;;;16.92;11.40;;;3.00;99.90;;;;;;5031683;28;20421;-61
2020/12/10 04:33:12;;;;;;;20.10;11.85;;;3.00;99.90;;;;;;5031021;28;20033;-61
2020/12/10 04:35:38;;;;;;;20.33;12.00;;;2.90;99.90;;;;;;5032172;28;20096;-61
2020/12/10 04:38:05;;;;;;;18.35;11.40;;;2.80;99.90;;;;;;5030194;28;20490;-61
2020/12/10 04:40:32;;;;;;;20.83;12.93;;;2.80;99.90;;;;;;5032119;28;20036;-61
2020/12/10 04:42:58;;;;;;;19.60;11.57;;;2.80;99.90;;;;;;5030144;28;20124;-61
2020/12/10 04:45:24;;;;;;;20.10;11.80;;;2.90;99.90;;;;;;5030510;28;20104;-61
2020/12/10 04:47:52;;;;;;;18.63;11.18;;;2.60;99.90;;;;;;5031212;28;20120;-61
2020/12/10 04:50:23;;;;;;;19.00;11.05;;;2.80;99.90;;;;;;5031539;28;20108;-60
2020/12/10 04:52:50;;;;;;;19.23;11.45;;;2.70;99.90;;;;;;5031419;28;20029;-61
2020/12/10 04:55:15;;;;;;;21.83;12.32;;;2.70;99.90;;;;;;5032063;28;20466;-61
2020/12/10 04:57:43;;;;;;;20.13;11.35;;;2.80;99.90;;;;;;5029647;28;20029;-61
2020/12/10 05:00:13;;;;;;;19.40;11.20;;;2.70;99.90;;;;;;5029588;28;20057;-61
2020/12/10 05:02:39;;;;;;;20.02;11.77;;;2.70;99.90;;;;;;5030501;28;20045;-61
2020/12/10 05:05:40;;;;;;;20.58;12.85;;;2.70;99.90;;;;;;5031096;28;20422;-60
2020/12/10 05:08:05;;;;;;;19.63;11.50;;;2.80;99.90;;;;;;4989318;28;20042;-61
2020/12/10 05:10:45;;;;;;;17.95;11.55;;;2.70;99.90;;;;;;5022495;28;20042;-60
2020/12/10 05:13:13;;;;;;;20.83;12.45;;;2.80;99.90;;;;;;5030208;28;20054;-60
2020/12/10 05:15:40;;;;;;;20.00;10.85;;;2.70;99.90;;;;;;5031317;28;20025;-61
2020/12/10 05:18:13;;;;;;;20.40;10.30;;;2.80;99.90;;;;;;5030549;28;20661;-61
2020/12/10 05:20:52;;;;;;;19.75;10.40;;;2.70;99.90;;;;;;5031327;28;20474;-61
2020/12/10 05:23:33;;;;;;;22.00;11.50;;;2.70;99.90;;;;;;5031604;28;20139;-61
2020/12/10 05:26:04;;;;;;;18.52;11.55;;;2.80;99.90;;;;;;5030619;28;20105;-61
2020/12/10 05:28:38;;;;;;;16.40;10.73;;;2.70;99.90;;;;;;5031515;28;20429;-61
2020/12/10 05:31:09;;;;;;;20.42;12.35;;;2.70;99.90;;;;;;5030662;28;20029;-62
2020/12/10 05:33:35;;;;;;;23.52;12.40;;;2.70;99.90;;;;;;5031213;28;20026;-60
2020/12/10 05:36:07;;;;;;;14.98;9.27;;;2.80;99.90;;;;;;5030583;28;20473;-60
2020/12/10 05:38:33;;;;;;;15.77;10.00;;;2.70;99.90;;;;;;5031098;28;20190;-61
2020/12/10 05:41:19;;;;;;;17.75;11.30;;;2.40;99.90;;;;;;5030452;28;20104;-60
2020/12/10 05:43:44;;;;;;;21.65;11.23;;;2.60;99.90;;;;;;5029622;28;20082;-61
2020/12/10 05:46:19;;;;;;;17.75;10.95;;;2.70;99.90;;;;;;5030481;28;20109;-61
2020/12/10 05:48:46;;;;;;;22.17;10.63;;;2.80;99.90;;;;;;5030156;28;20029;-61
2020/12/10 05:51:40;;;;;;;25.38;11.43;;;2.80;99.90;;;;;;5030110;28;20032;-62
2020/12/10 05:54:09;;;;;;;20.35;11.85;;;2.90;99.90;;;;;;5030436;28;20096;-61
2020/12/10 05:56:59;;;;;;;16.67;9.95;;;3.00;99.90;;;;;;5030811;28;20053;-61
2020/12/10 05:59:26;;;;;;;22.15;12.45;;;3.00;99.90;;;;;;5029857;28;20046;-62
2020/12/10 06:02:06;;;;;;;20.80;10.95;;;3.00;99.90;;;;;;5012658;28;20029;-63
2020/12/10 06:04:32;;;;;;;16.35;10.43;;;3.00;99.90;;;;;;5031216;28;20036;-61
2020/12/10 06:06:59;;;;;;;25.92;13.68;;;3.10;99.90;;;;;;5012331;28;20083;-63
2020/12/10 06:09:25;;;;;;;20.88;12.80;;;3.10;99.90;;;;;;5029594;28;20436;-62
2020/12/10 06:12:05;;;;;;;19.65;11.73;;;3.10;99.90;;;;;;5029834;28;20105;-62
2020/12/10 06:14:31;;;;;;;20.02;11.70;;;3.00;99.90;;;;;;5030272;28;20025;-62
2020/12/10 06:17:08;;;;;;;21.73;13.15;;;2.80;99.90;;;;;;4994587;28;20028;-61
2020/12/10 06:19:34;;;;;;;21.13;12.23;;;2.70;99.90;;;;;;5029814;28;20057;-61
2020/12/10 06:22:24;;;;;;;22.23;12.85;;;2.70;99.90;;;;;;5028851;28;20065;-61
2020/12/10 06:24:49;;;;;;;23.15;13.52;;;2.80;99.90;;;;;;5012064;28;20025;-62
2020/12/10 06:27:38;;;;;;;24.55;13.48;;;2.90;99.90;;;;;;5028865;28;20033;-61
2020/12/10 06:30:24;;;;;;;19.80;11.48;;;3.00;99.90;;;;;;4978624;28;20485;-62
2020/12/10 06:32:52;;;;;;;19.02;10.63;;;2.90;99.90;;;;;;5011502;28;20041;-61
2020/12/10 06:35:34;;;;;;;21.80;12.05;;;2.90;99.90;;;;;;5029727;28;20030;-61
2020/12/10 06:38:05;;;;;;;21.33;12.32;;;3.00;99.90;;;;;;5029155;28;20045;-62
2020/12/10 06:40:33;;;;;;;21.65;11.50;;;3.00;99.90;;;;;;4996118;28;20036;-61
2020/12/10 06:43:00;;;;;;;18.75;11.60;;;2.80;99.90;;;;;;5010523;28;20366;-61
2020/12/10 06:45:33;;;;;;;24.55;13.20;;;2.70;99.90;;;;;;5029702;28;20021;-65
2020/12/10 06:48:00;;;;;;;20.15;12.65;;;2.80;99.90;;;;;;5011133;28;20029;-61
2020/12/10 06:50:30;;;;;;;20.48;12.25;;;2.90;99.90;;;;;;5012186;28;20072;-62
2020/12/10 06:53:18;;;;;;;25.95;13.75;;;3.00;99.90;;;;;;5028796;28;20026;-62
2020/12/10 06:56:00;;;;;;;24.70;12.55;;;3.10;99.90;;;;;;4995605;28;20037;-61
2020/12/10 06:58:47;;;;;;;24.20;13.90;;;3.00;99.90;;;;;;5011726;28;20124;-60
2020/12/10 07:01:25;;;;;;;23.88;12.60;;;2.90;99.90;;;;;;4994009;28;20663;-61
2020/12/10 07:04:37;;;;;;;24.90;14.20;;;2.70;99.90;;;;;;5028692;28;20075;-62
2020/12/10 07:07:31;;;;;;;23.27;13.68;;;2.80;99.90;;;;;;5027979;28;20077;-63
2020/12/10 07:10:02;;;;;;;26.25;13.25;;;3.00;99.90;;;;;;5028930;28;20068;-61
2020/12/10 07:12:30;;;;;;;28.75;14.82;;;3.20;99.90;;;;;;5029546;28;20389;-61
2020/12/10 07:15:13;;;;;;;20.52;12.75;;;3.10;99.90;;;;;;5011276;28;20116;-61
2020/12/10 07:17:39;;;;;;;23.75;14.27;;;2.80;99.90;;;;;;5029630;28;20060;-61
2020/12/10 07:20:04;;;;;;;24.63;13.68;;;2.80;99.90;;;;;;5029472;28;20057;-61
2020/12/10 07:22:30;;;;;;;23.80;13.05;;;2.60;99.90;;;;;;5033403;28;20041;-61
2020/12/10 07:25:01;;;;;;;20.52;13.38;;;2.60;99.90;;;;;;5032790;28;20034;-61
2020/12/10 07:27:26;;;;;;;23.27;13.38;;;2.50;99.90;;;;;;5033127;28;20026;-61
2020/12/10 07:29:52;;;;;;;22.45;13.55;;;2.40;99.90;;;;;;5033016;28;20394;-61
2020/12/10 07:32:18;;;;;;;22.30;13.30;;;2.50;99.90;;;;;;5032582;28;20029;-61
2020/12/10 07:34:45;;;;;;;24.10;13.32;;;2.60;99.90;;;;;;5032848;28;20026;-61
2020/12/10 07:37:12;;;;;;;24.70;14.73;;;2.60;99.90;;;;;;5014394;28;20025;-60
2020/12/10 07:39:38;;;;;;;20.55;12.85;;;2.50;99.90;;;;;;5032685;28;20029;-60
2020/12/10 07:42:06;;;;;;;25.13;13.90;;;2.60;99.90;;;;;;5031761;28;20308;-60
2020/12/10 07:44:33;;;;;;;26.00;12.73;;;2.60;99.90;;;;;;5032036;28;20490;-61
2020/12/10 07:47:00;;;;;;;29.33;14.95;;;2.50;99.90;;;;;;5032400;28;20034;-62
2020/12/10 07:49:28;;;;;;;27.40;14.50;;;2.50;99.90;;;;;;5032475;28;20038;-60
2020/12/10 07:52:03;;;;;;;20.92;13.13;;;2.40;99.90;;;;;;5014918;28;20470;-61
2020/12/10 07:54:51;;;;;;;24.40;14.63;;;2.40;99.90;;;;;;5032838;28;20025;-61
2020/12/10 07:57:28;;;;;;;21.52;12.82;;;2.60;99.90;;;;;;5014518;28;20346;-60
2020/12/10 08:00:07;;;;;;;23.38;14.98;;;2.60;99.90;;;;;;5011754;28;20054;-65
2020/12/10 08:02:54;;;;;;;25.00;15.10;;;2.60;99.90;;;;;;5019854;28;20028;-61
2020/12/10 08:05:21;;;;;;;24.45;13.77;;;2.90;99.90;;;;;;5024474;28;20033;-60
2020/12/10 08:07:51;;;;;;;22.92;14.65;;;3.00;99.90;;;;;;5020229;28;20485;-61
2020/12/10 08:10:24;;;;;;;24.00;14.52;;;3.10;99.90;;;;;;5010910;28;20025;-61
2020/12/10 08:13:26;;;;;;;25.13;14.82;;;2.80;99.90;;;;;;5012693;28;20172;-62
2020/12/10 08:15:52;;;;;;;;;;;2.90;99.90;;;;;;5027726;28;20136;-61
2020/12/10 08:18:20;;;;;;;23.45;13.63;;;2.80;99.90;;;;;;5030765;28;19980;-62
2020/12/10 08:20:46;;;;;;;21.52;12.98;;;2.80;99.90;;;;;;5029423;28;20057;-61
2020/12/10 08:23:13;;;;;;;20.95;12.80;;;2.70;99.90;;;;;;5029003;28;20025;-61
2020/12/10 08:25:40;;;;;;;21.70;12.77;;;2.70;99.90;;;;;;5029685;28;20128;-62
2020/12/10 08:28:07;;;;;;;19.88;13.02;;;2.80;99.90;;;;;;5030026;28;20494;-62
2020/12/10 08:30:34;;;;;;;25.33;14.13;;;2.80;99.90;;;;;;5030701;28;20033;-61
2020/12/10 08:33:00;;;;;;;25.92;16.13;;;3.00;99.90;;;;;;5028915;28;20120;-62
2020/12/10 08:35:26;;;;;;;24.35;14.52;;;3.00;99.90;;;;;;5028443;28;20447;-61
2020/12/10 08:37:54;;;;;;;23.50;14.05;;;3.10;99.90;;;;;;5027469;28;20042;-61
2020/12/10 08:40:25;;;;;;;24.23;13.88;;;2.90;99.90;;;;;;5035434;28;20150;-61
2020/12/10 08:42:52;;;;;;;23.38;13.88;;;2.90;99.90;;;;;;5024474;28;20104;-57
2020/12/10 08:45:42;;;;;;;19.33;12.38;;;2.90;99.90;;;;;;5030131;28;20029;-60
2020/12/10 08:48:08;;;;;;;23.27;13.32;;;2.80;99.90;;;;;;5028833;28;20037;-60
2020/12/10 08:50:36;;;;;;;21.92;13.70;;;2.90;99.90;;;;;;5030726;28;20033;-62
2020/12/10 08:53:07;;;;;;;22.27;13.50;;;2.90;99.90;;;;;;5028059;28;20032;-61
2020/12/10 08:55:44;;;;;;;22.23;14.27;;;2.90;99.90;;;;;;5029810;28;20110;-60
2020/12/10 08:58:15;;;;;;;24.83;15.55;;;2.70;99.90;;;;;;5030108;28;20033;-60
2020/12/10 09:00:41;;;;;;;25.25;14.57;;;2.80;99.90;;;;;;5029047;28;20062;-61
2020/12/10 09:03:07;;;;;;;25.83;14.88;;;2.90;99.90;;;;;;5029635;28;20026;-60
2020/12/10 09:05:49;;;;;;;26.27;14.70;;;3.00;99.90;;;;;;5025805;28;20346;-61
2020/12/10 09:08:14;;;;;;;;;;;3.00;99.90;;;;;;5028360;28;20139;-61
2020/12/10 09:10:40;;;;;;;26.88;15.15;;;2.90;99.90;;;;;;5029481;28;19953;-60
2020/12/10 09:13:08;;;;;;;23.42;14.57;;;3.10;99.90;;;;;;5029095;28;20032;-60
2020/12/10 09:15:38;;;;;;;21.75;13.85;;;3.00;99.90;;;;;;5030394;28;20105;-61
2020/12/10 09:18:07;;;;;;;25.30;14.32;;;3.10;99.90;;;;;;5012268;28;20033;-63
2020/12/10 09:20:33;;;;;;;29.75;15.05;;;3.10;99.90;;;;;;5030317;28;20128;-61
2020/12/10 09:23:00;;;;;;;30.23;16.50;;;3.10;99.90;;;;;;5030245;28;20037;-62
2020/12/10 09:25:25;;;;;;;26.33;14.88;;;3.20;99.90;;;;;;5029614;28;20044;-62
2020/12/10 09:27:52;;;;;;;27.13;15.30;;;3.10;99.90;;;;;;5030014;28;20450;-61
2020/12/10 09:30:19;;;;;;;29.60;15.60;;;3.00;99.90;;;;;;5029505;28;20029;-61
2020/12/10 09:32:45;;;;;;;25.98;15.07;;;2.90;99.90;;;;;;5027602;28;20121;-60
2020/12/10 09:35:12;;;;;;;28.65;15.70;;;2.80;99.90;;;;;;5027439;28;20490;-61
2020/12/10 09:37:41;;;;;;;27.80;16.05;;;2.80;99.90;;;;;;5029239;28;20021;-60
2020/12/10 09:40:09;;;;;;;30.67;17.73;;;2.90;99.90;;;;;;5028681;28;20366;-60
2020/12/10 09:42:39;;;;;;;33.33;17.15;;;3.00;99.90;;;;;;5012632;28;20021;-61
2020/12/10 09:45:05;;;;;;;30.98;16.20;;;3.10;99.90;;;;;;5028600;28;20038;-61
2020/12/10 09:47:30;;;;;;;30.90;17.38;;;2.90;99.90;;;;;;5029484;28;20029;-60
2020/12/10 09:49:56;;;;;;;31.30;18.55;;;3.10;99.90;;;;;;5030326;28;20034;-60
2020/12/10 09:52:23;;;;;;;29.55;17.00;;;3.20;99.90;;;;;;5029440;28;20253;-61
2020/12/10 09:54:59;;;;;;;26.45;15.77;;;3.30;99.90;;;;;;5030282;28;20526;-59
2020/12/10 09:57:32;;;;;;;28.33;15.20;;;3.40;99.90;;;;;;5045450;28;20108;-59
2020/12/10 10:00:00;;;;;;;28.67;16.05;;;3.30;99.90;;;;;;5029263;28;20068;-60
2020/12/10 10:02:27;;;;;;;24.90;14.98;;;3.10;99.90;;;;;;5030406;28;20063;-60
2020/12/10 10:04:53;;;;;;;30.67;16.33;;;3.10;99.90;;;;;;5029309;28;20032;-60
2020/12/10 10:07:22;;;;;;;29.23;16.52;;;3.20;99.90;;;;;;5030787;28;20029;-61
2020/12/10 10:09:54;;;;;;;27.70;15.20;;;3.20;99.90;;;;;;5029202;28;20034;-60
2020/12/10 10:12:19;;;;;;;28.90;15.80;;;3.20;99.90;;;;;;5028618;28;20033;-60
2020/12/10 10:14:45;;;;;;;27.88;16.35;;;3.30;99.90;;;;;;5029310;28;20033;-61
2020/12/10 10:17:26;;;;;;;27.38;15.18;;;3.40;99.90;;;;;;5030479;28;20033;-61
2020/12/10 10:19:52;;;;;;;23.92;15.00;;;3.20;99.90;;;;;;5029847;28;20040;-61
2020/12/10 10:22:19;;;;;;;27.88;15.25;;;3.10;99.90;;;;;;5029953;28;20033;-60
2020/12/10 10:24:46;;;;;;;26.23;15.57;;;3.00;99.90;;;;;;5030128;28;20021;-61
2020/12/10 10:27:12;;;;;;;30.67;15.70;;;3.20;99.90;;;;;;5030255;28;20021;-59
2020/12/10 10:29:38;;;;;;;27.10;15.50;;;3.10;99.90;;;;;;5030291;28;20033;-60
2020/12/10 10:32:06;;;;;;;28.10;16.08;;;3.20;99.90;;;;;;5030383;28;20508;-62
2020/12/10 10:34:32;;;;;;;27.25;14.90;;;3.20;99.90;;;;;;5029200;28;20025;-60
2020/12/10 10:36:58;;;;;;;35.35;16.83;;;3.30;99.90;;;;;;5030366;28;20025;-60
2020/12/10 10:39:24;;;;;;;31.10;16.95;;;3.30;99.90;;;;;;5029919;28;20029;-61
2020/12/10 10:41:51;;;;;;;27.75;16.85;;;3.20;99.90;;;;;;5012164;28;20026;-60
2020/12/10 10:44:40;;;;;;;27.73;16.17;;;3.20;99.90;;;;;;5011420;28;20108;-61
2020/12/10 10:47:07;;;;;;;28.73;15.63;;;3.10;99.90;;;;;;5028458;28;20060;-61
2020/12/10 10:49:33;;;;;;;31.58;16.90;;;3.30;99.90;;;;;;5012276;28;20041;-61
2020/12/10 10:51:59;;;;;;;28.98;18.00;;;3.40;99.90;;;;;;5012194;28;20025;-61
2020/12/10 10:54:24;;;;;;;28.27;16.13;;;3.50;99.90;;;;;;5029937;28;20022;-61
2020/12/10 10:56:52;;;;;;;28.35;17.27;;;3.40;99.90;;;;;;5033752;28;20104;-61
2020/12/10 10:59:18;;;;;;;31.00;15.65;;;3.40;99.90;;;;;;5031718;28;20079;-59
2020/12/10 11:01:43;;;;;;;26.73;15.02;;;3.60;99.90;;;;;;5016168;28;20029;-60
2020/12/10 11:04:09;;;;;;;28.65;15.82;;;3.70;99.90;;;;;;5033333;28;20089;-61
2020/12/10 11:06:35;;;;;;;27.40;16.13;;;3.50;99.90;;;;;;5016212;28;20113;-61
2020/12/10 11:09:01;;;;;;;27.23;15.23;;;3.40;99.90;;;;;;5015987;28;20029;-62
2020/12/10 11:11:28;;;;;;;29.38;17.13;;;3.50;99.90;;;;;;5033338;28;20049;-61
2020/12/10 11:13:53;;;;;;;31.75;16.88;;;3.50;99.90;;;;;;5033641;28;20470;-60
2020/12/10 11:16:21;;;;;;;29.52;16.40;;;3.40;99.90;;;;;;5033481;28;20029;-60
2020/12/10 11:18:47;;;;;;;28.08;16.77;;;3.50;99.90;;;;;;5033693;28;20441;-60
2020/12/10 11:21:33;;;;;;;31.73;16.75;;;3.50;99.90;;;;;;5033320;28;20028;-61
2020/12/10 11:23:59;;;;;;;30.45;16.17;;;3.60;99.90;;;;;;4999425;28;20112;-60
2020/12/10 11:26:25;;;;;;;28.35;15.13;;;3.70;99.90;;;;;;4998358;28;20429;-62
2020/12/10 11:28:50;;;;;;;28.48;16.13;;;3.70;99.90;;;;;;5033054;28;20034;-60
2020/12/10 11:31:36;;;;;;;27.42;14.77;;;3.60;99.90;;;;;;5033277;28;20029;-60
2020/12/10 11:34:01;;;;;;;27.38;14.45;;;3.40;99.90;;;;;;5033352;28;20035;-61
2020/12/10 11:36:27;;;;;;;26.98;15.15;;;3.50;99.90;;;;;;5031100;28;20025;-60
2020/12/10 11:38:58;;;;;;;26.20;13.82;;;3.50;99.90;;;;;;5032499;28;20087;-60
2020/12/10 11:41:50;;;;;;;21.15;12.82;;;3.60;99.90;;;;;;4998066;28;20052;-61
2020/12/10 11:44:15;;;;;;;27.15;12.57;;;3.60;99.90;;;;;;5032191;28;20021;-61
2020/12/10 11:46:41;;;;;;;24.15;13.65;;;3.60;99.90;;;;;;5033185;28;20032;-60
2020/12/10 11:49:07;;;;;;;21.27;12.10;;;3.60;99.90;;;;;;5014320;28;20338;-61
2020/12/10 11:51:33;;;;;;;19.85;12.23;;;3.60;99.90;;;;;;5014935;28;20435;-61
2020/12/10 11:54:04;;;;;;;21.10;12.65;;;3.60;99.90;;;;;;5031922;28;20033;-60
2020/12/10 11:56:57;;;;;;;20.40;12.07;;;3.50;99.90;;;;;;5016942;28;20346;-60
2020/12/10 11:59:24;;;;;;;20.67;12.07;;;3.50;99.90;;;;;;5031886;28;20037;-60
2020/12/10 12:02:12;;;;;;;18.95;11.25;;;3.60;99.90;;;;;;4998156;28;20033;-61
2020/12/10 12:04:38;;;;;;;23.63;11.65;;;3.70;99.90;;;;;;5032012;28;20025;-61
2020/12/10 12:07:12;;;;;;;17.13;10.88;;;3.60;99.90;;;;;;5031957;28;20078;-60
2020/12/10 12:09:38;;;;;;;19.23;11.38;;;3.70;99.90;;;;;;4998135;28;20095;-61
2020/12/10 12:12:18;;;;;;;22.88;12.35;;;3.50;99.90;;;;;;5032440;28;20394;-61
2020/12/10 12:14:44;;;;;;;20.30;12.88;;;3.40;99.90;;;;;;5014632;28;20167;-59
2020/12/10 12:17:09;;;;;;;17.95;11.07;;;3.10;99.90;;;;;;5012940;28;20060;-61
2020/12/10 12:19:35;;;;;;;19.73;11.10;;;3.10;99.90;;;;;;5014442;28;20480;-61
2020/12/10 12:22:01;;;;;;;17.05;10.65;;;3.10;99.90;;;;;;5030751;28;20022;-60
2020/12/10 12:24:27;;;;;;;19.02;10.77;;;3.10;99.90;;;;;;5013247;28;20076;-62
2020/12/10 12:27:13;;;;;;;18.05;10.52;;;3.20;99.90;;;;;;5032228;28;20022;-62
2020/12/10 12:29:39;;;;;;;18.35;9.88;;;3.30;99.90;;;;;;5015237;28;20476;-61
2020/12/10 12:32:06;;;;;;;16.98;9.93;;;3.40;99.90;;;;;;5014480;28;20056;-62
2020/12/10 12:34:32;;;;;;;14.63;9.75;;;3.40;99.90;;;;;;5030991;28;20386;-60
2020/12/10 12:37:02;;;;;;;15.57;9.90;;;3.40;99.90;;;;;;5014104;28;20028;-60
2020/12/10 12:39:27;;;;;;;16.48;10.50;;;3.40;99.90;;;;;;5031396;28;20025;-61
2020/12/10 12:41:57;;;;;;;14.35;9.60;;;3.40;99.90;;;;;;5031753;28;20022;-60
2020/12/10 12:44:22;;;;;;;13.20;8.98;;;3.40;99.90;;;;;;4996840;28;20037;-61
2020/12/10 12:46:51;;;;;;;16.85;9.82;;;3.40;99.90;;;;;;5014016;28;20366;-61
2020/12/10 12:49:18;;;;;;;15.80;9.57;;;3.40;99.90;;;;;;5013614;28;20091;-60